Time;durP1;ratioP1;P1;durP2;ratioP2;P2;SDS_P1;SDS_P2;PMS_P1;PMS_P2;Temp;Humidity;BMP_temperature;BMP_pressure;BME280_temperature;BME280_humidity;BME280_pressure;Samples;Min_cycle;Max_cycle;Signal;HPM_P1;HPM_P2
2023/03/17 00:03:40;;;;;;;0.20;0.00;;;14.50;99.90;;;;;;21213677;27;20409;-67
2023/03/17 00:13:46;;;;;;;0.20;0.00;;;14.40;99.90;;;;;;21153595;28;20390;-68
2023/03/17 00:23:51;;;;;;;0.20;0.10;;;14.50;99.90;;;;;;21146143;28;20459;-67
2023/03/17 00:33:57;;;;;;;0.20;0.10;;;14.60;99.90;;;;;;21166020;28;20407;-67
2023/03/17 00:44:02;;;;;;;0.20;0.10;;;14.40;99.90;;;;;;21212680;28;20408;-67
2023/03/17 00:54:09;;;;;;;0.20;0.10;;;14.30;99.90;;;;;;21230236;28;20426;-67
2023/03/17 01:04:13;;;;;;;0.20;0.10;;;14.30;99.90;;;;;;21211356;28;20397;-67
2023/03/17 01:14:18;;;;;;;0.20;0.10;;;14.40;99.90;;;;;;21157674;28;21089;-66
2023/03/17 01:24:22;;;;;;;0.20;0.10;;;14.40;99.90;;;;;;21159367;28;20410;-66
2023/03/17 01:34:28;;;;;;;0.20;0.10;;;14.60;99.90;;;;;;21162371;27;20459;-66
2023/03/17 01:44:32;;;;;;;0.20;0.10;;;14.30;99.90;;;;;;21224790;27;20408;-67
2023/03/17 01:54:42;;;;;;;0.20;0.10;;;14.40;99.90;;;;;;21242071;27;20404;-67
2023/03/17 02:04:46;;;;;;;0.20;0.10;;;14.20;99.90;;;;;;21240800;27;20440;-66
2023/03/17 02:14:52;;;;;;;0.20;0.00;;;13.80;99.90;;;;;;21222253;27;20477;-66
2023/03/17 02:24:59;;;;;;;0.20;0.05;;;13.60;99.90;;;;;;21238812;27;20466;-66
2023/03/17 02:35:03;;;;;;;0.20;0.10;;;13.30;99.90;;;;;;21197423;27;20891;-67
2023/03/17 02:45:11;;;;;;;0.20;0.10;;;13.00;99.90;;;;;;21238207;27;20725;-66
2023/03/17 02:55:15;;;;;;;0.20;0.10;;;12.80;99.90;;;;;;21219165;27;20393;-66
2023/03/17 03:05:21;;;;;;;0.20;0.10;;;12.60;99.90;;;;;;21189624;27;20493;-68
2023/03/17 03:15:24;;;;;;;0.20;0.00;;;12.20;99.90;;;;;;21235740;27;20412;-68
2023/03/17 03:25:30;;;;;;;0.20;0.10;;;12.20;99.90;;;;;;21234622;27;20767;-68
2023/03/17 03:35:34;;;;;;;0.20;0.10;;;12.20;99.90;;;;;;21185187;27;20966;-69
2023/03/17 03:45:40;;;;;;;0.20;0.10;;;12.00;99.90;;;;;;21212541;27;21145;-69
2023/03/17 03:55:44;;;;;;;0.20;0.10;;;12.00;99.90;;;;;;21129139;28;20480;-68
2023/03/17 04:05:49;;;;;;;0.20;0.10;;;12.00;99.90;;;;;;21139648;27;20871;-66
2023/03/17 04:15:52;;;;;;;0.20;0.00;;;12.00;99.90;;;;;;21231485;27;20393;-68
2023/03/17 04:25:58;;;;;;;0.20;0.00;;;11.90;99.90;;;;;;21213168;28;20405;-69
2023/03/17 04:36:02;;;;;;;0.20;0.00;;;11.80;99.90;;;;;;21189748;28;20397;-68
2023/03/17 04:46:08;;;;;;;0.20;0.10;;;11.80;99.90;;;;;;21237401;27;20397;-67
2023/03/17 04:56:12;;;;;;;0.20;0.10;;;11.50;99.90;;;;;;21246067;27;20432;-69
2023/03/17 05:06:17;;;;;;;0.20;0.00;;;11.20;99.90;;;;;;21245270;27;20436;-69
2023/03/17 05:16:21;;;;;;;0.20;0.10;;;11.10;99.90;;;;;;21210333;27;20405;-67
2023/03/17 05:26:27;;;;;;;0.20;0.10;;;11.00;99.90;;;;;;21243728;27;20404;-67
2023/03/17 05:36:32;;;;;;;0.20;0.10;;;10.80;99.90;;;;;;21220470;27;20404;-69
2023/03/17 05:46:37;;;;;;;0.20;0.10;;;11.00;99.90;;;;;;21224522;27;20417;-69
2023/03/17 05:56:41;;;;;;;0.20;0.10;;;11.20;99.90;;;;;;21221278;27;20400;-67
2023/03/17 06:06:47;;;;;;;0.20;0.10;;;11.60;99.90;;;;;;21238927;27;20514;-67
2023/03/17 06:16:51;;;;;;;0.20;0.10;;;12.10;99.90;;;;;;21237489;27;20385;-70
2023/03/17 06:26:56;;;;;;;0.20;0.10;;;12.50;99.90;;;;;;21219536;27;20400;-67
2023/03/17 06:37:00;;;;;;;0.20;0.10;;;13.10;99.90;;;;;;21213084;27;20404;-69
2023/03/17 06:47:06;;;;;;;0.20;0.00;;;13.50;99.90;;;;;;21216628;27;20414;-68
2023/03/17 06:57:11;;;;;;;0.20;0.10;;;13.80;99.90;;;;;;21213091;27;20408;-65
2023/03/17 07:07:16;;;;;;;0.20;0.00;;;14.10;99.90;;;;;;21227835;27;20417;-67
2023/03/17 07:17:20;;;;;;;0.20;0.10;;;14.40;99.90;;;;;;21232656;27;20401;-68
2023/03/17 07:27:25;;;;;;;0.20;0.10;;;14.20;99.90;;;;;;21196044;27;20760;-68
2023/03/17 07:37:30;;;;;;;0.20;0.10;;;14.20;99.90;;;;;;21190518;27;20429;-68
2023/03/17 07:47:35;;;;;;;0.20;0.00;;;14.40;99.90;;;;;;21230194;27;20465;-67
2023/03/17 07:57:40;;;;;;;0.20;0.10;;;14.60;99.90;;;;;;21209445;27;20459;-67
2023/03/17 08:07:45;;;;;;;0.20;0.10;;;15.00;99.90;;;;;;21209506;27;20427;-68
2023/03/17 08:17:49;;;;;;;0.20;0.10;;;15.50;99.90;;;;;;21229510;27;20488;-67
2023/03/17 08:27:54;;;;;;;0.20;0.10;;;15.90;99.90;;;;;;21226648;27;20903;-70
2023/03/17 08:37:58;;;;;;;0.20;0.10;;;16.20;99.90;;;;;;21205067;27;20396;-68
2023/03/17 08:48:04;;;;;;;0.20;0.10;;;16.30;99.90;;;;;;21244349;27;20409;-69
2023/03/17 08:58:08;;;;;;;0.20;0.00;;;16.60;99.90;;;;;;21224862;27;20401;-68
2023/03/17 09:08:14;;;;;;;0.20;0.10;;;16.90;99.90;;;;;;21243037;27;20416;-69
2023/03/17 09:18:18;;;;;;;0.20;0.00;;;17.50;99.90;;;;;;21222881;27;20567;-68
2023/03/17 09:28:26;;;;;;;0.20;0.03;;;17.30;99.90;;;;;;21221243;27;20864;-69
2023/03/17 09:38:30;;;;;;;0.20;0.00;;;17.20;99.90;;;;;;21211900;27;20406;-69
2023/03/17 09:48:50;;;;;;;0.20;0.10;;;17.30;99.90;;;;;;21161683;27;20826;-67
2023/03/17 09:58:58;;;;;;;0.20;0.10;;;17.70;99.90;;;;;;21134292;28;20395;-68
2023/03/17 10:09:10;;;;;;;0.20;0.00;;;17.50;99.90;;;;;;21189734;27;20750;-68
2023/03/17 10:19:25;;;;;;;0.20;0.03;;;17.30;99.90;;;;;;21163628;27;20414;-68
2023/03/17 10:29:31;;;;;;;0.20;0.00;;;17.50;99.90;;;;;;21148840;28;20478;-68
2023/03/17 10:39:44;;;;;;;0.20;0.00;;;17.80;99.90;;;;;;21191279;27;20399;-67
2023/03/17 10:49:51;;;;;;;0.20;0.00;;;19.00;99.90;;;;;;21213879;27;20401;-67
2023/03/17 10:59:57;;;;;;;0.20;0.10;;;19.20;99.90;;;;;;21232175;27;20497;-67
2023/03/17 11:10:14;;;;;;;0.20;0.10;;;18.40;99.90;;;;;;21230935;27;20405;-66
2023/03/17 11:20:41;;;;;;;0.20;0.08;;;19.20;99.90;;;;;;21142429;28;21071;-67
2023/03/17 11:30:52;;;;;;;0.20;0.00;;;20.30;99.90;;;;;;21127144;28;20815;-67
2023/03/17 11:41:29;;;;;;;0.20;0.00;;;20.60;99.90;;;;;;21199755;27;20397;-67
2023/03/17 11:51:42;;;;;;;0.20;0.00;;;20.60;99.90;;;;;;21229282;27;20430;-68
2023/03/17 12:01:54;;;;;;;0.20;0.00;;;21.70;99.90;;;;;;21193477;27;20401;-67
2023/03/17 12:12:02;;;;;;;0.20;0.00;;;21.10;99.90;;;;;;21228117;27;20469;-67
2023/03/17 12:22:13;;;;;;;0.20;0.07;;;21.90;99.90;;;;;;21208219;28;20417;-67
2023/03/17 12:32:21;;;;;;;0.20;0.10;;;22.40;99.90;;;;;;21209524;28;20976;-67
2023/03/17 12:42:36;;;;;;;0.20;0.10;;;21.90;99.90;;;;;;21208317;28;20401;-66
2023/03/17 12:53:00;;;;;;;0.20;0.00;;;22.30;99.90;;;;;;21208937;28;20773;-68
2023/03/17 13:03:22;;;;;;;0.20;0.00;;;22.60;99.90;;;;;;21209344;27;20555;-68
2023/03/17 13:13:47;;;;;;;0.20;0.03;;;22.50;99.90;;;;;;21242709;27;20401;-67
2023/03/17 13:23:57;;;;;;;0.20;0.00;;;23.10;99.90;;;;;;21206162;27;20409;-68
2023/03/17 13:34:13;;;;;;;0.20;0.10;;;23.10;99.90;;;;;;21237574;27;20556;-68
2023/03/17 13:44:31;;;;;;;0.20;0.00;;;23.30;99.90;;;;;;21233419;27;20504;-68
2023/03/17 13:54:42;;;;;;;0.20;0.00;;;22.00;99.90;;;;;;21202185;27;20393;-68
2023/03/17 14:04:56;;;;;;;0.20;0.00;;;22.50;99.90;;;;;;21219765;27;20532;-68
2023/03/17 14:15:05;;;;;;;0.20;0.10;;;24.20;99.90;;;;;;21235226;27;20489;-67
2023/03/17 14:25:16;;;;;;;0.20;0.00;;;24.10;99.90;;;;;;21218134;27;20538;-68
2023/03/17 14:35:21;;;;;;;0.20;0.00;;;20.40;99.90;;;;;;21236010;27;20799;-66
2023/03/17 14:45:31;;;;;;;0.20;0.00;;;19.50;99.90;;;;;;21234691;27;20413;-69
2023/03/17 14:55:40;;;;;;;0.20;0.00;;;19.40;99.90;;;;;;21215351;27;20397;-68
2023/03/17 15:05:46;;;;;;;0.20;0.10;;;19.10;99.90;;;;;;21214707;27;20455;-69
2023/03/17 15:15:51;;;;;;;0.20;0.10;;;19.80;99.90;;;;;;21232427;27;20412;-68
